Birmingham, Alabama
Current Conditions -  °F | °C
As of 9:53 AM on Thursday 23 Oct 2014 (Local Time) from KBHM Reporting Station
Scattered Clouds Scattered Clouds  
Wind Chill: 55°   Ceiling: Unl
Heat Index: 55°   Visibility: 10mi
Dew Point: 40°   Wind: 9mph
Humidity: 57%   Direction: 80°E
Pressure: 30.19"   Gusts: NA
Location:  33.52°N, 86.81°W
Report Text: KBHM 231453Z 08008KT 030V100 10SM SCT250 13/04 A3019 RMK AO2 SLP223 T01280044 53008
Loading
Personal Weather Stations






























Interactive Weather Map New forecast layout! Learn more

10-Day Weather Forecast

Advertisements
Track Severe Weather on mobile